Terminal Aerodrome Forecast
Issued by NWS

Home | Current Version | Previous Version | Graphics & Text | Print | Product List | Glossary Off
Versions: 1 2 3 4 5 6 7 8 9 10 11 12 13 14 15 16 17 18 19 20 21 22 23 24 25 26

000
FTUS45 KGGW 260536
TAFGDV
TAF
KGDV 260536Z 2606/2706 06010KT P6SM SCT004 BKN080
     FM260900 28005KT 1/2SM FG SCT001 OVC015
     FM261300 23008KT 2SM BR SCT016 OVC040
     FM261800 26014KT P6SM SCT022 BKN025
     FM270000 32008KT 3SM BR SCT035 BKN040=

USA.gov is the U.S. government's official web portal to all federal, state and local government web resources and services.